Time;durP1;ratioP1;P1;durP2;ratioP2;P2;SDS_P1;SDS_P2;PMS_P1;PMS_P2;Temp;Humidity;BMP_temperature;BMP_pressure;BME280_temperature;BME280_humidity;BME280_pressure;Samples;Min_cycle;Max_cycle;Signal;HPM_P1;HPM_P2
2022/08/25 00:00:04;;;;;;;;;;;;;;;18.73;93.61;101594.34;1048866;28;20413;-72
2022/08/25 00:00:40;;;;;;;;;;;;;;;18.95;93.71;101593.50;1048471;28;20019;-73
2022/08/25 00:01:20;;;;;;;;;;;;;;;18.90;93.08;101590.72;1048691;28;19924;-73
2022/08/25 00:02:00;;;;;;;;;;;;;;;19.07;92.84;101592.28;1048512;28;19925;-72
2022/08/25 00:02:36;;;;;;;;;;;;;;;19.08;92.20;101587.69;1048978;28;19925;-72
2022/08/25 00:03:11;;;;;;;;;;;;;;;19.13;91.87;101590.44;1048569;28;19970;-72
2022/08/25 00:03:44;;;;;;;;;;;;;;;19.11;91.92;101589.88;1048799;28;20018;-72
2022/08/25 00:04:19;;;;;;;;;;;;;;;19.16;91.18;101589.91;1048534;28;19931;-72
2022/08/25 00:04:51;;;;;;;;;;;;;;;19.21;90.89;101589.19;1047773;28;20520;-72
2022/08/25 00:05:26;;;;;;;;;;;;;;;19.19;90.70;101586.75;1050152;28;20398;-73
2022/08/25 00:06:03;;;;;;;;;;;;;;;19.25;90.46;101585.72;1048502;28;19979;-73
2022/08/25 00:06:38;;;;;;;;;;;;;;;19.25;90.14;101593.81;1048294;28;19924;-72
2022/08/25 00:07:13;;;;;;;;;;;;;;;19.25;90.39;101593.00;1052382;28;20390;-72
2022/08/25 00:07:51;;;;;;;;;;;;;;;19.26;89.88;101590.03;1053006;28;19924;-72
2022/08/25 00:08:26;;;;;;;;;;;;;;;19.09;90.02;101589.31;1053137;28;19983;-72
2022/08/25 00:09:00;;;;;;;;;;;;;;;19.11;91.01;101596.09;1051694;28;19928;-72
2022/08/25 00:09:35;;;;;;;;;;;;;;;18.93;91.15;101591.06;1048788;28;19928;-72
2022/08/25 00:10:08;;;;;;;;;;;;;;;18.89;90.74;101589.09;1048982;28;19925;-72
2022/08/25 00:10:42;;;;;;;;;;;;;;;18.78;91.56;101594.38;1048984;28;19986;-72
2022/08/25 00:11:34;;;;;;;;;;;;;;;18.96;91.42;101592.44;1048968;28;20134;-72
2022/08/25 00:12:06;;;;;;;;;;;;;;;19.00;91.54;101596.25;1048511;28;19931;-72
2022/08/25 00:12:37;;;;;;;;;;;;;;;19.02;91.48;101592.22;1048400;28;19939;-72
2022/08/25 00:13:10;;;;;;;;;;;;;;;19.00;91.51;101590.84;1048747;28;19966;-72
2022/08/25 00:13:46;;;;;;;;;;;;;;;19.07;91.11;101596.84;1044735;28;20298;-72
2022/08/25 00:14:19;;;;;;;;;;;;;;;18.99;91.48;101594.63;1044514;28;19925;-72
2022/08/25 00:14:51;;;;;;;;;;;;;;;19.03;90.93;101595.75;1040317;28;19925;-72
2022/08/25 00:15:25;;;;;;;;;;;;;;;19.01;90.30;101597.88;1041711;28;19929;-72
2022/08/25 00:15:57;;;;;;;;;;;;;;;19.02;90.68;101599.50;1045865;28;19948;-72
2022/08/25 00:16:31;;;;;;;;;;;;;;;19.07;90.77;101586.88;1045704;28;20462;-73
2022/08/25 00:17:03;;;;;;;;;;;;;;;18.95;89.81;101596.19;1044168;28;19975;-73
2022/08/25 00:17:38;;;;;;;;;;;;;;;19.01;89.86;101592.47;1044518;28;19947;-72
2022/08/25 00:18:11;;;;;;;;;;;;;;;19.06;90.42;101597.94;1044357;28;19925;-73
2022/08/25 00:18:54;;;;;;;;;;;;;;;19.01;90.18;101598.69;1047161;28;20382;-72
2022/08/25 00:19:29;;;;;;;;;;;;;;;19.04;89.30;101591.97;1046828;28;20402;-72
2022/08/25 00:20:00;;;;;;;;;;;;;;;18.81;90.06;101599.28;1052610;28;19925;-72
2022/08/25 00:20:31;;;;;;;;;;;;;;;18.73;90.83;101602.44;1052850;28;19928;-73
2022/08/25 00:21:05;;;;;;;;;;;;;;;18.84;90.94;101604.16;1053518;28;19931;-72
2022/08/25 00:21:39;;;;;;;;;;;;;;;18.87;90.19;101597.44;1054989;28;19924;-72
2022/08/25 00:22:12;;;;;;;;;;;;;;;18.81;89.81;101603.88;1048620;28;20014;-73
2022/08/25 00:22:45;;;;;;;;;;;;;;;18.78;89.70;101589.00;1048592;28;19925;-72
2022/08/25 00:23:19;;;;;;;;;;;;;;;18.89;90.18;101599.88;1048302;28;19925;-72
2022/08/25 00:23:52;;;;;;;;;;;;;;;18.93;89.71;101601.84;1045834;28;19924;-73
2022/08/25 00:24:24;;;;;;;;;;;;;;;18.81;90.98;101598.47;1048412;28;19924;-72
2022/08/25 00:24:57;;;;;;;;;;;;;;;18.79;90.42;101606.81;1044214;28;19951;-73
2022/08/25 00:25:31;;;;;;;;;;;;;;;18.69;89.91;101601.31;1045466;28;19931;-72
2022/08/25 00:26:03;;;;;;;;;;;;;;;18.74;90.56;101595.97;1048383;28;20023;-72
2022/08/25 00:26:37;;;;;;;;;;;;;;;18.88;90.39;101603.66;1048684;28;19925;-73
2022/08/25 00:27:13;;;;;;;;;;;;;;;18.79;89.96;101601.41;1048492;28;19924;-73
2022/08/25 00:27:49;;;;;;;;;;;;;;;18.88;90.38;101603.66;1048065;28;19931;-73
2022/08/25 00:28:22;;;;;;;;;;;;;;;18.90;89.95;101599.66;1048440;28;19977;-72
2022/08/25 00:28:56;;;;;;;;;;;;;;;18.68;89.91;101599.69;1048584;28;20398;-73
2022/08/25 00:29:36;;;;;;;;;;;;;;;18.56;91.10;101590.84;1052537;28;19924;-72
2022/08/25 00:30:13;;;;;;;;;;;;;;;18.62;90.92;101597.97;1052713;28;20011;-72
2022/08/25 00:30:48;;;;;;;;;;;;;;;18.44;91.54;101598.25;1052759;28;19931;-73
2022/08/25 00:31:22;;;;;;;;;;;;;;;18.57;91.84;101597.88;1060498;27;20393;-73
2022/08/25 00:32:11;;;;;;;;;;;;;;;18.66;91.22;101601.81;1061283;27;19924;-72
2022/08/25 00:32:47;;;;;;;;;;;;;;;18.77;89.96;101592.75;1056996;27;20238;-72
2022/08/25 00:33:30;;;;;;;;;;;;;;;18.66;89.77;101593.72;1048293;28;19936;-72
2022/08/25 00:34:02;;;;;;;;;;;;;;;18.61;89.52;101599.00;1048508;28;19924;-72
2022/08/25 00:34:41;;;;;;;;;;;;;;;18.63;89.63;101599.63;1048206;28;20002;-72
2022/08/25 00:35:16;;;;;;;;;;;;;;;18.72;89.55;101600.78;1047820;28;19925;-72
2022/08/25 00:35:51;;;;;;;;;;;;;;;18.74;89.64;101598.66;1047933;28;19925;-72
2022/08/25 00:36:27;;;;;;;;;;;;;;;18.60;89.40;101596.56;1048448;28;20070;-73
2022/08/25 00:37:02;;;;;;;;;;;;;;;18.69;89.46;101595.91;1048802;28;19933;-72
2022/08/25 00:37:37;;;;;;;;;;;;;;;18.79;89.02;101595.19;1047992;28;19931;-72
2022/08/25 00:38:11;;;;;;;;;;;;;;;18.80;89.06;101597.66;1047962;28;19925;-72
2022/08/25 00:38:45;;;;;;;;;;;;;;;18.82;88.65;101590.09;1048391;28;20435;-72
2022/08/25 00:39:19;;;;;;;;;;;;;;;18.82;88.39;101595.50;1046177;28;19925;-72
2022/08/25 00:39:53;;;;;;;;;;;;;;;18.84;88.93;101598.78;1048747;28;19931;-72
2022/08/25 00:40:29;;;;;;;;;;;;;;;18.76;88.70;101599.22;1046135;28;19924;-72
2022/08/25 00:41:05;;;;;;;;;;;;;;;18.86;88.50;101600.41;1048457;28;20005;-72
2022/08/25 00:41:41;;;;;;;;;;;;;;;18.80;88.54;101597.66;1048449;28;20742;-72
2022/08/25 00:42:19;;;;;;;;;;;;;;;18.75;88.41;101596.78;1045125;28;19932;-72
2022/08/25 00:42:55;;;;;;;;;;;;;;;18.67;89.42;101598.03;1048268;28;20340;-73
2022/08/25 00:43:50;;;;;;;;;;;;;;;18.52;89.58;101595.94;1044213;28;19932;-72
2022/08/25 00:44:28;;;;;;;;;;;;;;;18.31;91.44;101593.22;1044675;28;19928;-72
2022/08/25 00:45:04;;;;;;;;;;;;;;;18.27;91.48;101597.47;1044834;28;20010;-72
2022/08/25 00:45:38;;;;;;;;;;;;;;;18.20;92.15;101609.25;1047959;28;19924;-72
2022/08/25 00:46:10;;;;;;;;;;;;;;;18.22;92.79;101606.31;1048944;28;20523;-72
2022/08/25 00:46:45;;;;;;;;;;;;;;;18.20;92.74;101611.94;1048420;28;19929;-73
2022/08/25 00:47:19;;;;;;;;;;;;;;;18.16;91.18;101601.91;1047810;28;19931;-73
2022/08/25 00:47:52;;;;;;;;;;;;;;;18.31;90.33;101598.59;1052615;28;19935;-72
2022/08/25 00:48:29;;;;;;;;;;;;;;;18.39;90.16;101595.50;1054675;28;20397;-72
2022/08/25 00:49:22;;;;;;;;;;;;;;;18.41;89.80;101594.19;1056871;28;19924;-73
2022/08/25 00:49:57;;;;;;;;;;;;;;;18.28;90.79;101599.09;1048732;28;19983;-72
2022/08/25 00:50:30;;;;;;;;;;;;;;;18.34;90.78;101603.50;1048322;28;20480;-72
2022/08/25 00:51:04;;;;;;;;;;;;;;;18.43;90.34;101597.44;1052120;28;20013;-72
2022/08/25 00:51:37;;;;;;;;;;;;;;;18.25;90.64;101602.28;1048436;28;19932;-72
2022/08/25 00:52:25;;;;;;;;;;;;;;;18.31;91.25;101598.59;1049754;28;19931;-72
2022/08/25 00:53:00;;;;;;;;;;;;;;;18.45;90.01;101597.19;1050475;28;19925;-72
2022/08/25 00:53:34;;;;;;;;;;;;;;;18.23;90.77;101608.75;1048176;28;19931;-73
2022/08/25 00:54:09;;;;;;;;;;;;;;;18.18;91.75;101600.59;1047634;28;20433;-72
2022/08/25 00:54:43;;;;;;;;;;;;;;;18.31;92.20;101606.69;1052498;28;19931;-73
2022/08/25 00:55:22;;;;;;;;;;;;;;;18.12;92.50;101607.00;1050260;28;19931;-73
2022/08/25 00:55:57;;;;;;;;;;;;;;;18.17;93.13;101598.97;1049778;28;20050;-72
2022/08/25 00:56:30;;;;;;;;;;;;;;;18.20;93.34;101603.03;1048861;28;20390;-72
2022/08/25 00:57:05;;;;;;;;;;;;;;;18.15;93.61;101603.78;1048594;28;20309;-73
2022/08/25 00:57:42;;;;;;;;;;;;;;;18.13;94.21;101608.63;1046039;28;19932;-72
2022/08/25 00:58:25;;;;;;;;;;;;;;;18.06;94.06;101607.97;1048460;28;20386;-72
2022/08/25 00:58:57;;;;;;;;;;;;;;;18.16;94.03;101605.44;1048389;28;19932;-72
2022/08/25 00:59:29;;;;;;;;;;;;;;;18.24;94.25;101609.56;1048321;28;19924;-73
2022/08/25 01:00:05;;;;;;;;;;;;;;;18.17;94.02;101612.44;1052065;28;20023;-73
2022/08/25 01:00:41;;;;;;;;;;;;;;;17.96;94.21;101607.81;1053703;28;20069;-72
2022/08/25 01:01:17;;;;;;;;;;;;;;;17.93;94.32;101608.31;1056725;28;19931;-73
2022/08/25 01:01:52;;;;;;;;;;;;;;;18.00;94.44;101611.66;1051647;28;19923;-73
2022/08/25 01:02:25;;;;;;;;;;;;;;;18.19;93.84;101612.19;1048265;28;19925;-72
2022/08/25 01:03:00;;;;;;;;;;;;;;;18.15;93.19;101609.19;1048944;28;20017;-72
2022/08/25 01:03:35;;;;;;;;;;;;;;;18.12;93.19;101607.00;1048647;28;19932;-72
2022/08/25 01:04:09;;;;;;;;;;;;;;;18.02;93.48;101606.81;1047938;28;19924;-73
2022/08/25 01:04:43;;;;;;;;;;;;;;;17.96;93.58;101607.00;1048194;28;19928;-72
2022/08/25 01:05:20;;;;;;;;;;;;;;;17.93;93.57;101608.31;1048618;28;20019;-73
2022/08/25 01:05:55;;;;;;;;;;;;;;;18.14;92.75;101604.03;1047915;28;19930;-72
2022/08/25 01:06:31;;;;;;;;;;;;;;;18.18;92.54;101599.78;1047110;28;20456;-72
2022/08/25 01:07:07;;;;;;;;;;;;;;;18.23;92.26;101607.94;1045771;28;19924;-72
2022/08/25 01:07:49;;;;;;;;;;;;;;;18.30;91.58;101603.19;1046089;28;20042;-72
2022/08/25 01:08:25;;;;;;;;;;;;;;;18.38;91.42;101599.25;1046760;28;20111;-72
2022/08/25 01:08:59;;;;;;;;;;;;;;;18.29;90.69;101606.13;1048435;28;20400;-72
2022/08/25 01:09:34;;;;;;;;;;;;;;;18.15;90.83;101606.50;1048714;28;19931;-73
2022/08/25 01:10:09;;;;;;;;;;;;;;;18.21;91.19;101604.69;1048538;28;19977;-72
2022/08/25 01:10:42;;;;;;;;;;;;;;;18.20;91.24;101597.66;1048057;28;21123;-73
2022/08/25 01:11:14;;;;;;;;;;;;;;;18.02;91.82;101601.44;1044538;28;19924;-72
2022/08/25 01:11:46;;;;;;;;;;;;;;;17.91;92.38;101605.03;1048013;28;19931;-73
2022/08/25 01:12:21;;;;;;;;;;;;;;;17.89;92.56;101599.09;1049303;28;19969;-72
2022/08/25 01:13:09;;;;;;;;;;;;;;;17.91;92.84;101605.03;1053659;28;19931;-73
2022/08/25 01:13:51;;;;;;;;;;;;;;;17.84;92.97;101601.72;1048371;28;19925;-73
2022/08/25 01:14:24;;;;;;;;;;;;;;;17.92;92.74;101599.41;1048352;28;19924;-72
2022/08/25 01:14:56;;;;;;;;;;;;;;;17.79;92.87;101602.41;1048311;28;20382;-72
2022/08/25 01:15:29;;;;;;;;;;;;;;;17.88;93.24;101609.06;1048492;28;19924;-72
2022/08/25 01:16:05;;;;;;;;;;;;;;;18.03;93.11;101596.84;1044427;28;19948;-73
2022/08/25 01:16:39;;;;;;;;;;;;;;;17.92;92.99;101595.91;1039782;28;20050;-72
2022/08/25 01:17:11;;;;;;;;;;;;;;;17.91;92.98;101600.47;1033519;28;20331;-73
2022/08/25 01:17:47;;;;;;;;;;;;;;;17.91;92.23;101602.34;1037192;28;19933;-72
2022/08/25 01:18:20;;;;;;;;;;;;;;;17.86;92.40;101596.88;1041495;28;19964;-72
2022/08/25 01:18:56;;;;;;;;;;;;;;;18.05;92.09;101592.84;1044498;28;20440;-72
2022/08/25 01:19:34;;;;;;;;;;;;;;;18.16;90.99;101594.63;1043993;28;20436;-72
2022/08/25 01:20:06;;;;;;;;;;;;;;;18.12;91.25;101593.50;1040303;28;19933;-72
2022/08/25 01:20:40;;;;;;;;;;;;;;;18.05;91.82;101600.94;1042062;28;19925;-72
2022/08/25 01:21:15;;;;;;;;;;;;;;;17.86;92.54;101599.59;1041712;28;19933;-72
2022/08/25 01:21:51;;;;;;;;;;;;;;;17.84;92.55;101597.13;1042206;28;19925;-73
2022/08/25 01:22:25;;;;;;;;;;;;;;;17.86;92.90;101594.19;1043979;28;19928;-72
2022/08/25 01:22:59;;;;;;;;;;;;;;;17.81;93.42;101603.03;1046581;28;19948;-72
2022/08/25 01:23:31;;;;;;;;;;;;;;;17.81;93.67;101604.91;1048283;28;19924;-72
2022/08/25 01:24:03;;;;;;;;;;;;;;;17.79;93.61;101596.22;1048576;28;19924;-72
2022/08/25 01:24:39;;;;;;;;;;;;;;;17.91;93.88;101595.09;1048155;28;20376;-73
2022/08/25 01:25:16;;;;;;;;;;;;;;;17.86;94.19;101602.28;1049870;28;20310;-72
2022/08/25 01:26:04;;;;;;;;;;;;;;;17.81;93.84;101597.63;1048344;28;19928;-72
2022/08/25 01:26:36;;;;;;;;;;;;;;;17.63;94.41;101602.41;1052428;28;19924;-72
2022/08/25 01:27:10;;;;;;;;;;;;;;;17.64;95.12;101595.97;1049125;28;20337;-72
2022/08/25 01:27:43;;;;;;;;;;;;;;;17.66;94.81;101601.91;1047300;28;19924;-72
2022/08/25 01:28:17;;;;;;;;;;;;;;;17.64;95.18;101604.84;1048213;28;19931;-72
2022/08/25 01:29:48;;;;;;;;;;;;;;;17.60;94.71;101609.09;1048755;28;19925;-72
2022/08/25 01:30:23;;;;;;;;;;;;;;;17.55;94.63;101600.94;1047949;28;19924;-72
2022/08/25 01:30:58;;;;;;;;;;;;;;;17.49;94.79;101599.19;1048836;28;19925;-72
2022/08/25 01:31:31;;;;;;;;;;;;;;;17.54;94.44;101604.69;1048553;28;19924;-72
2022/08/25 01:32:06;;;;;;;;;;;;;;;17.51;94.65;101599.75;1048453;28;19928;-72
2022/08/25 01:32:43;;;;;;;;;;;;;;;17.57;94.75;101599.63;1048494;28;19967;-72
2022/08/25 01:33:21;;;;;;;;;;;;;;;17.72;94.14;101606.34;1048224;28;20007;-73
2022/08/25 01:33:56;;;;;;;;;;;;;;;17.81;93.90;101611.09;1047253;28;19978;-72
2022/08/25 01:34:35;;;;;;;;;;;;;;;17.66;93.90;101607.31;1043514;28;19924;-73
2022/08/25 01:35:10;;;;;;;;;;;;;;;17.74;93.95;101601.53;1048217;28;19924;-72
2022/08/25 01:35:45;;;;;;;;;;;;;;;17.92;93.09;101596.72;1050603;28;19924;-72
2022/08/25 01:36:19;;;;;;;;;;;;;;;17.92;92.73;101595.91;1051632;28;20326;-72
2022/08/25 01:36:55;;;;;;;;;;;;;;;17.95;93.10;101600.78;1051855;28;20518;-72
2022/08/25 01:37:27;;;;;;;;;;;;;;;17.90;93.81;101600.72;1048587;28;19931;-72
2022/08/25 01:38:01;;;;;;;;;;;;;;;17.95;94.17;101600.78;1048732;28;19932;-72
2022/08/25 01:38:34;;;;;;;;;;;;;;;18.08;92.83;101603.16;1048226;28;20412;-72
2022/08/25 01:39:10;;;;;;;;;;;;;;;18.15;91.55;101601.09;1048487;28;19924;-72
2022/08/25 01:39:45;;;;;;;;;;;;;;;18.21;90.37;101601.97;1049204;28;19947;-72
2022/08/25 01:40:19;;;;;;;;;;;;;;;18.29;89.92;101606.13;1048312;28;19924;-72
2022/08/25 01:40:54;;;;;;;;;;;;;;;18.31;89.52;101595.91;1048663;28;19932;-72
2022/08/25 01:41:36;;;;;;;;;;;;;;;18.36;88.91;101587.91;1048826;28;19970;-72
2022/08/25 01:42:16;;;;;;;;;;;;;;;18.40;89.05;101594.44;1048656;28;19925;-72
2022/08/25 01:43:01;;;;;;;;;;;;;;;18.26;89.91;101601.22;1046097;28;19931;-72
2022/08/25 01:43:37;;;;;;;;;;;;;;;18.35;89.60;101594.34;1048753;28;19925;-73
2022/08/25 01:44:12;;;;;;;;;;;;;;;18.39;89.60;101590.91;1045866;28;19932;-72
2022/08/25 01:44:49;;;;;;;;;;;;;;;18.45;88.73;101589.09;1048599;28;19924;-72
2022/08/25 01:45:23;;;;;;;;;;;;;;;18.44;87.77;101592.84;1048372;28;20521;-72
2022/08/25 01:45:59;;;;;;;;;;;;;;;18.47;88.56;101586.97;1048783;28;20077;-72
2022/08/25 01:46:33;;;;;;;;;;;;;;;18.51;87.44;101583.50;1047921;28;19982;-72
2022/08/25 01:47:09;;;;;;;;;;;;;;;18.56;87.17;101585.44;1048305;28;19928;-72
2022/08/25 01:47:44;;;;;;;;;;;;;;;18.61;86.86;101585.50;1048329;28;19924;-71
2022/08/25 01:48:18;;;;;;;;;;;;;;;18.65;86.76;101589.38;1048376;28;19924;-72
2022/08/25 01:48:53;;;;;;;;;;;;;;;18.65;86.24;101583.19;1047574;28;19951;-73
2022/08/25 01:49:29;;;;;;;;;;;;;;;18.57;85.99;101584.38;1048425;28;20402;-72
2022/08/25 01:50:04;;;;;;;;;;;;;;;18.54;86.65;101582.19;1048451;28;19924;-72
2022/08/25 01:50:40;;;;;;;;;;;;;;;18.43;87.33;101585.84;1043826;28;20396;-72
2022/08/25 01:51:16;;;;;;;;;;;;;;;18.44;87.75;101582.06;1046112;28;19925;-72
2022/08/25 01:51:53;;;;;;;;;;;;;;;18.23;87.60;101584.50;1044002;28;19925;-73
2022/08/25 01:52:41;;;;;;;;;;;;;;;18.47;87.35;101578.88;1043959;28;20352;-72
2022/08/25 01:53:31;;;;;;;;;;;;;;;18.62;86.64;101576.38;1043920;28;19925;-72
2022/08/25 01:54:06;;;;;;;;;;;;;;;18.58;86.68;101583.31;1048529;28;19932;-72
2022/08/25 01:54:41;;;;;;;;;;;;;;;18.55;86.02;101581.13;1048445;28;19970;-72
2022/08/25 01:55:17;;;;;;;;;;;;;;;18.66;85.91;101582.91;1048470;28;20404;-73
2022/08/25 01:55:52;;;;;;;;;;;;;;;18.68;85.09;101588.88;1048426;28;19928;-73
2022/08/25 01:56:32;;;;;;;;;;;;;;;18.73;86.12;101585.41;1048348;28;19935;-72
2022/08/25 01:57:07;;;;;;;;;;;;;;;18.74;86.46;101582.47;1048017;28;19932;-72
2022/08/25 01:57:42;;;;;;;;;;;;;;;18.75;86.23;101592.19;1052651;28;19924;-72
2022/08/25 01:58:19;;;;;;;;;;;;;;;18.78;86.34;101586.28;1055489;27;20034;-72
2022/08/25 01:58:53;;;;;;;;;;;;;;;18.72;85.99;101581.09;1051890;28;19931;-72
2022/08/25 01:59:28;;;;;;;;;;;;;;;18.77;85.70;101586.53;1049918;28;19924;-72
2022/08/25 02:00:05;;;;;;;;;;;;;;;18.77;85.15;101581.97;1043939;28;20063;-73
2022/08/25 02:00:44;;;;;;;;;;;;;;;18.72;84.64;101581.09;1042436;28;20468;-72
2022/08/25 02:01:21;;;;;;;;;;;;;;;18.78;83.07;101577.38;1044013;28;19933;-72
2022/08/25 02:01:58;;;;;;;;;;;;;;;18.81;83.56;101577.69;1042930;28;20007;-72
2022/08/25 02:02:36;;;;;;;;;;;;;;;18.86;83.52;101578.81;1044347;28;19924;-72
2022/08/25 02:03:14;;;;;;;;;;;;;;;18.86;84.31;101585.03;1043786;28;19932;-72
2022/08/25 02:03:53;;;;;;;;;;;;;;;18.90;84.16;101582.63;1042175;28;19924;-72
2022/08/25 02:04:31;;;;;;;;;;;;;;;18.90;84.32;101582.63;1043960;28;20126;-73
2022/08/25 02:05:07;;;;;;;;;;;;;;;18.90;83.55;101575.38;1040156;28;19951;-72
2022/08/25 02:05:44;;;;;;;;;;;;;;;18.90;82.12;101574.53;1046901;28;20014;-72
2022/08/25 02:06:23;;;;;;;;;;;;;;;18.90;81.55;101579.91;1048045;28;20133;-72
2022/08/25 02:07:03;;;;;;;;;;;;;;;18.80;82.33;101577.94;1048162;28;19939;-72
2022/08/25 02:07:41;;;;;;;;;;;;;;;18.84;82.58;101577.16;1054017;28;19924;-71
2022/08/25 02:08:21;;;;;;;;;;;;;;;18.88;81.55;101576.66;1056398;28;20150;-72
2022/08/25 02:08:59;;;;;;;;;;;;;;;18.93;81.44;101564.06;1052395;28;19939;-72
2022/08/25 02:09:32;;;;;;;;;;;;;;;18.65;81.82;101577.78;1046441;28;19983;-72
2022/08/25 02:10:06;;;;;;;;;;;;;;;18.69;82.92;101574.31;1048166;28;19925;-71
2022/08/25 02:10:40;;;;;;;;;;;;;;;18.77;81.86;101575.75;1045883;28;20479;-72
2022/08/25 02:11:15;;;;;;;;;;;;;;;18.74;83.20;101579.78;1047984;28;19928;-72
2022/08/25 02:11:50;;;;;;;;;;;;;;;18.72;83.38;101584.59;1048064;28;19959;-72
2022/08/25 02:12:24;;;;;;;;;;;;;;;18.76;83.05;101580.34;1047541;28;19932;-72
2022/08/25 02:12:59;;;;;;;;;;;;;;;18.66;83.29;101582.91;1045827;28;19932;-72
2022/08/25 02:13:34;;;;;;;;;;;;;;;18.62;84.21;101579.06;1048241;28;19951;-72
2022/08/25 02:14:08;;;;;;;;;;;;;;;18.63;84.70;101583.44;1048052;28;19924;-72
2022/08/25 02:14:41;;;;;;;;;;;;;;;18.55;84.09;101583.81;1052314;28;19924;-72
2022/08/25 02:15:17;;;;;;;;;;;;;;;18.62;84.85;101580.91;1052748;28;20298;-72
2022/08/25 02:15:51;;;;;;;;;;;;;;;18.62;84.86;101589.84;1052751;28;19924;-73
2022/08/25 02:16:27;;;;;;;;;;;;;;;18.70;84.82;101592.13;1052497;28;19924;-73
2022/08/25 02:17:01;;;;;;;;;;;;;;;18.75;84.78;101584.09;1052542;28;20007;-72
2022/08/25 02:17:36;;;;;;;;;;;;;;;18.76;84.19;101588.44;1052316;28;19923;-72
2022/08/25 02:18:10;;;;;;;;;;;;;;;18.79;83.87;101590.63;1056347;28;19924;-73
2022/08/25 02:18:47;;;;;;;;;;;;;;;18.80;82.90;101581.44;1053843;28;19923;-72
2022/08/25 02:19:24;;;;;;;;;;;;;;;18.74;83.48;101587.06;1052777;28;19929;-72
2022/08/25 02:19:59;;;;;;;;;;;;;;;18.75;83.56;101584.09;1049427;28;19966;-72
2022/08/25 02:20:35;;;;;;;;;;;;;;;18.86;83.15;101592.31;1043587;28;20610;-72
2022/08/25 02:21:10;;;;;;;;;;;;;;;18.87;82.13;101592.03;1041711;28;20307;-72
2022/08/25 02:21:47;;;;;;;;;;;;;;;18.93;81.80;101590.25;1042371;28;20325;-73
2022/08/25 02:22:23;;;;;;;;;;;;;;;18.97;81.66;101585.97;1046421;28;19924;-72
2022/08/25 02:22:57;;;;;;;;;;;;;;;19.01;80.87;101584.38;1048242;28;19925;-73
2022/08/25 02:23:29;;;;;;;;;;;;;;;19.00;80.43;101585.44;1048131;28;19935;-72
2022/08/25 02:24:01;;;;;;;;;;;;;;;19.07;79.54;101580.66;1046130;28;19933;-72
2022/08/25 02:24:34;;;;;;;;;;;;;;;18.96;79.53;101590.56;1047843;28;19931;-72
2022/08/25 02:25:09;;;;;;;;;;;;;;;18.77;79.64;101581.97;1048377;28;19929;-72
2022/08/25 02:25:43;;;;;;;;;;;;;;;18.86;79.93;101589.59;1047539;28;19924;-72
2022/08/25 02:26:17;;;;;;;;;;;;;;;18.89;79.83;101589.09;1048262;28;20302;-73
2022/08/25 02:26:51;;;;;;;;;;;;;;;18.96;79.63;101589.72;1049543;28;19925;-72
2022/08/25 02:27:27;;;;;;;;;;;;;;;19.05;79.30;101586.31;1052514;28;19930;-72
2022/08/25 02:28:02;;;;;;;;;;;;;;;19.00;79.05;101582.75;1052326;28;19924;-72
2022/08/25 02:28:33;;;;;;;;;;;;;;;18.95;80.00;101582.69;1052435;28;20426;-72
2022/08/25 02:29:06;;;;;;;;;;;;;;;18.94;80.65;101591.88;1052419;28;19924;-72
2022/08/25 02:29:41;;;;;;;;;;;;;;;18.83;80.59;101590.94;1054224;28;19932;-72
2022/08/25 02:30:17;;;;;;;;;;;;;;;18.90;79.82;101590.72;1045634;28;19928;-72
2022/08/25 02:30:51;;;;;;;;;;;;;;;19.00;79.72;101586.28;1052146;28;20014;-72
2022/08/25 02:31:33;;;;;;;;;;;;;;;18.95;78.96;101585.41;1050571;28;19932;-72
2022/08/25 02:32:08;;;;;;;;;;;;;;;18.96;78.49;101579.75;1047228;28;19955;-72
2022/08/25 02:32:43;;;;;;;;;;;;;;;18.98;78.85;101579.50;1044981;28;19933;-72
2022/08/25 02:33:18;;;;;;;;;;;;;;;19.02;78.68;101578.72;1043732;28;19925;-72
2022/08/25 02:33:54;;;;;;;;;;;;;;;19.06;76.46;101587.94;1047945;28;20318;-72
2022/08/25 02:34:29;;;;;;;;;;;;;;;19.11;75.08;101576.38;1052214;28;19978;-72
2022/08/25 02:35:05;;;;;;;;;;;;;;;19.19;73.76;101570.53;1052492;28;19924;-72
2022/08/25 02:35:39;;;;;;;;;;;;;;;19.25;73.05;101572.19;1051796;28;19932;-72
2022/08/25 02:36:13;;;;;;;;;;;;;;;19.36;71.56;101573.91;1052260;28;19978;-72
2022/08/25 02:36:46;;;;;;;;;;;;;;;19.32;72.10;101569.28;1052826;28;20408;-72
2022/08/25 02:37:22;;;;;;;;;;;;;;;19.36;72.46;101568.50;1047666;28;19976;-73
2022/08/25 02:37:58;;;;;;;;;;;;;;;19.46;71.43;101567.81;1043977;28;20027;-72
2022/08/25 02:38:34;;;;;;;;;;;;;;;19.45;70.63;101561.59;1043852;28;19931;-72
2022/08/25 02:39:08;;;;;;;;;;;;;;;19.59;70.83;101577.38;1050908;28;19930;-72
2022/08/25 02:39:41;;;;;;;;;;;;;;;19.56;70.39;101570.59;1054285;28;20100;-72
2022/08/25 02:40:16;;;;;;;;;;;;;;;19.62;70.44;101574.16;1056692;28;19946;-72
2022/08/25 02:40:52;;;;;;;;;;;;;;;19.61;70.44;101575.22;1054511;28;20020;-73
2022/08/25 02:41:28;;;;;;;;;;;;;;;19.63;69.32;101557.69;1052242;28;20300;-72
2022/08/25 02:42:03;;;;;;;;;;;;;;;19.68;69.67;101565.00;1044215;28;19988;-72
2022/08/25 02:42:39;;;;;;;;;;;;;;;19.63;69.99;101573.09;1043826;28;20043;-72
2022/08/25 02:43:14;;;;;;;;;;;;;;;19.54;69.53;101571.94;1039957;28;19972;-73
2022/08/25 02:43:48;;;;;;;;;;;;;;;19.55;68.68;101568.16;1044506;28;19932;-72
2022/08/25 02:44:21;;;;;;;;;;;;;;;19.60;68.55;101568.19;1043878;28;19925;-72
2022/08/25 02:44:54;;;;;;;;;;;;;;;19.56;69.55;101567.91;1045425;28;19924;-72
2022/08/25 02:45:31;;;;;;;;;;;;;;;19.59;69.13;101566.56;1048159;28;20470;-72
2022/08/25 02:46:05;;;;;;;;;;;;;;;19.32;70.88;101572.00;1049414;28;19924;-72
2022/08/25 02:46:40;;;;;;;;;;;;;;;19.35;72.16;101575.00;1052668;28;19931;-72
2022/08/25 02:47:11;;;;;;;;;;;;;;;19.49;71.60;101578.09;1052677;28;19924;-72
2022/08/25 02:47:43;;;;;;;;;;;;;;;19.54;70.83;101574.66;1052351;28;19932;-72
2022/08/25 02:48:17;;;;;;;;;;;;;;;19.55;70.55;101571.69;1052645;28;19924;-72
2022/08/25 02:48:52;;;;;;;;;;;;;;;19.56;70.32;101572.50;1045416;28;19925;-72
2022/08/25 02:49:27;;;;;;;;;;;;;;;19.56;71.64;101577.91;1043825;28;19933;-72
2022/08/25 02:50:01;;;;;;;;;;;;;;;19.59;70.19;101569.28;1044232;28;19925;-72
2022/08/25 02:50:34;;;;;;;;;;;;;;;19.60;70.89;101573.59;1044951;28;19924;-72
2022/08/25 02:51:07;;;;;;;;;;;;;;;19.57;71.00;101577.66;1044113;28;19932;-72
2022/08/25 02:51:53;;;;;;;;;;;;;;;19.51;71.31;101569.72;1039255;28;19925;-72
2022/08/25 02:52:24;;;;;;;;;;;;;;;19.56;70.90;101578.72;1039731;28;20386;-72
2022/08/25 02:52:57;;;;;;;;;;;;;;;19.58;70.24;101568.47;1038369;28;19926;-72
2022/08/25 02:53:32;;;;;;;;;;;;;;;19.63;69.32;101563.09;1042825;28;19991;-72
2022/08/25 02:54:03;;;;;;;;;;;;;;;19.62;69.96;101571.47;1040982;28;19988;-72
2022/08/25 02:54:36;;;;;;;;;;;;;;;19.62;70.23;101571.47;1048747;28;19925;-72
2022/08/25 02:55:13;;;;;;;;;;;;;;;19.65;69.09;101560.13;1052351;28;19935;-72
2022/08/25 02:55:46;;;;;;;;;;;;;;;19.74;67.77;101561.28;1049752;28;19924;-72
2022/08/25 02:56:18;;;;;;;;;;;;;;;19.72;67.30;101558.00;1050357;28;20898;-72
2022/08/25 02:56:52;;;;;;;;;;;;;;;19.70;67.50;101554.75;1043996;28;19925;-72
2022/08/25 02:57:27;;;;;;;;;;;;;;;19.76;67.50;101561.84;1044794;28;20333;-72
2022/08/25 02:58:03;;;;;;;;;;;;;;;19.70;68.32;101562.88;1048265;28;19924;-72
2022/08/25 02:58:37;;;;;;;;;;;;;;;19.71;68.34;101569.91;1047439;28;19925;-72
2022/08/25 02:59:14;;;;;;;;;;;;;;;19.80;67.26;101552.13;1047779;28;19935;-72
2022/08/25 02:59:50;;;;;;;;;;;;;;;19.84;67.35;101558.66;1048251;28;19928;-72
2022/08/25 03:00:25;;;;;;;;;;;;;;;19.80;67.19;101552.13;1047855;28;19924;-72
2022/08/25 03:01:00;;;;;;;;;;;;;;;19.77;68.14;101557.25;1050965;28;19931;-73
2022/08/25 03:01:35;;;;;;;;;;;;;;;19.79;67.91;101561.31;1052305;28;19931;-72
2022/08/25 03:02:08;;;;;;;;;;;;;;;19.75;67.42;101557.50;1052360;28;19924;-72
2022/08/25 03:02:43;;;;;;;;;;;;;;;19.76;67.82;101559.16;1045096;28;20496;-72